createdAt,value
2017-09-17T00:02:03.845Z,8.23
2017-09-17T00:04:32.304Z,12.47
2017-09-17T00:07:01.539Z,7.00
2017-09-17T00:09:29.998Z,7.30
2017-09-17T00:11:58.473Z,6.30
2017-09-17T00:14:26.957Z,8.67
2017-09-17T00:16:55.440Z,6.90
2017-09-17T00:19:23.899Z,6.60
2017-09-17T00:21:53.160Z,8.10
2017-09-17T00:24:21.620Z,6.87
2017-09-17T00:26:50.098Z,6.90
2017-09-17T00:29:18.712Z,11.50
2017-09-17T00:31:46.980Z,7.57
2017-09-17T00:34:15.489Z,9.43
2017-09-17T00:36:43.999Z,6.60
2017-09-17T00:39:13.244Z,9.80
2017-09-17T00:41:41.711Z,7.90
2017-09-17T00:44:09.819Z,8.60
2017-09-17T00:46:38.288Z,7.90
2017-09-17T00:49:06.763Z,7.60
2017-09-17T00:51:34.890Z,9.70
2017-09-17T00:54:03.447Z,7.50
2017-09-17T00:56:32.010Z,7.43
2017-09-17T00:59:00.579Z,8.83
2017-09-17T01:01:29.050Z,7.73
2017-09-17T01:03:57.516Z,6.67
2017-09-17T01:06:26.755Z,8.63
2017-09-17T01:08:55.221Z,7.70
2017-09-17T01:11:23.701Z,8.13
2017-09-17T01:13:51.972Z,7.83
2017-09-17T01:16:20.114Z,7.80
2017-09-17T01:18:49.344Z,6.53
2017-09-17T01:21:17.892Z,7.60
2017-09-17T01:23:46.372Z,6.77
2017-09-17T01:26:14.859Z,6.17
2017-09-17T01:28:43.340Z,5.77
2017-09-17T01:31:11.819Z,9.17
2017-09-17T01:33:40.288Z,6.73
2017-09-17T01:36:08.780Z,6.40
2017-09-17T01:38:37.248Z,6.90
2017-09-17T01:41:05.801Z,6.13
2017-09-17T01:43:34.266Z,7.07
2017-09-17T01:46:02.748Z,9.93
2017-09-17T01:48:31.199Z,5.83
2017-09-17T01:50:59.651Z,7.07
2017-09-17T01:53:28.131Z,6.43
2017-09-17T01:55:56.584Z,7.47
2017-09-17T01:58:25.060Z,7.67
2017-09-17T02:00:53.520Z,7.00
2017-09-17T02:03:22.760Z,6.33
2017-09-17T02:05:51.224Z,7.63
2017-09-17T02:08:20.430Z,6.73
2017-09-17T02:10:49.253Z,6.20
2017-09-17T02:13:17.715Z,10.37
2017-09-17T02:15:46.184Z,7.60
2017-09-17T02:18:14.650Z,6.80
2017-09-17T02:20:43.891Z,6.83
2017-09-17T02:23:12.346Z,6.77
2017-09-17T02:25:40.823Z,5.80
2017-09-17T02:28:09.272Z,5.07
2017-09-17T02:30:37.763Z,6.23
2017-09-17T02:33:06.393Z,6.60
2017-09-17T02:35:34.856Z,5.80
2017-09-17T02:38:03.332Z,6.20
2017-09-17T02:40:32.563Z,10.37
2017-09-17T02:43:01.051Z,6.37
2017-09-17T02:45:29.509Z,7.33
2017-09-17T02:47:57.992Z,6.80
2017-09-17T02:50:26.446Z,7.00
2017-09-17T02:52:55.695Z,7.93
2017-09-17T02:55:24.148Z,8.17
2017-09-17T02:57:52.619Z,10.33
2017-09-17T03:00:21.879Z,7.67
2017-09-17T03:02:50.339Z,11.00
2017-09-17T03:05:18.809Z,7.23
2017-09-17T03:07:47.259Z,7.70
2017-09-17T03:10:16.499Z,7.70
2017-09-17T03:12:44.962Z,7.37
2017-09-17T03:15:13.436Z,10.07
2017-09-17T03:17:42.680Z,7.70
2017-09-17T03:20:11.152Z,8.33
2017-09-17T03:22:39.621Z,7.47
2017-09-17T03:25:08.076Z,8.00
2017-09-17T03:27:37.320Z,8.30
2017-09-17T03:30:05.785Z,8.30
2017-09-17T03:32:34.283Z,7.87
2017-09-17T03:35:02.749Z,8.30
2017-09-17T03:37:31.036Z,9.03
2017-09-17T03:39:59.316Z,8.40
2017-09-17T03:42:27.586Z,11.40
2017-09-17T03:44:55.932Z,8.13
2017-09-17T03:47:25.167Z,9.03
2017-09-17T03:49:53.647Z,10.30
2017-09-17T03:52:22.112Z,11.23
2017-09-17T03:54:50.576Z,8.93
2017-09-17T03:57:19.819Z,8.70
2017-09-17T03:59:48.280Z,7.23
2017-09-17T04:02:16.752Z,7.70
2017-09-17T04:04:45.979Z,6.80
2017-09-17T04:07:14.599Z,7.43
2017-09-17T04:09:43.056Z,6.23
2017-09-17T04:12:11.543Z,9.60
2017-09-17T04:14:40.128Z,10.87
2017-09-17T04:17:08.719Z,7.83
2017-09-17T04:19:37.188Z,11.13
2017-09-17T04:22:05.699Z,11.20
2017-09-17T04:24:34.162Z,10.17
2017-09-17T04:27:02.643Z,12.40
2017-09-17T04:29:31.099Z,11.13
2017-09-17T04:31:59.592Z,11.23
2017-09-17T04:34:28.059Z,16.90
2017-09-17T04:36:56.543Z,11.20
2017-09-17T04:39:25.009Z,9.43
2017-09-17T04:41:54.226Z,9.10
2017-09-17T04:44:22.703Z,10.50
2017-09-17T04:46:51.157Z,9.90
2017-09-17T04:49:20.552Z,9.53
2017-09-17T04:51:49.025Z,14.37
2017-09-17T04:54:17.505Z,17.70
2017-09-17T04:56:46.159Z,22.10
2017-09-17T04:59:14.639Z,35.33
2017-09-17T05:01:43.103Z,23.03
2017-09-17T05:04:11.582Z,22.37
2017-09-17T05:06:40.415Z,39.53
2017-09-17T05:09:08.876Z,13.73
2017-09-17T05:11:37.331Z,15.20
2017-09-17T05:14:06.563Z,9.23
2017-09-17T05:16:35.042Z,16.83
2017-09-17T05:19:04.458Z,11.33
2017-09-17T05:21:32.923Z,10.00
2017-09-17T05:24:01.479Z,10.37
2017-09-17T05:26:30.720Z,10.67
2017-09-17T05:28:59.443Z,10.23
2017-09-17T05:31:27.928Z,10.13
2017-09-17T05:33:56.627Z,9.57
2017-09-17T05:36:25.136Z,10.17
2017-09-17T05:38:53.612Z,10.93
2017-09-17T05:41:22.092Z,12.77
2017-09-17T05:43:51.317Z,12.80
2017-09-17T05:46:19.822Z,10.97
2017-09-17T05:48:48.295Z,14.70
2017-09-17T05:51:16.774Z,15.30
2017-09-17T05:53:45.239Z,13.40
2017-09-17T05:56:13.714Z,11.17
2017-09-17T05:58:42.191Z,13.33
2017-09-17T06:01:10.685Z,13.37
2017-09-17T06:03:39.152Z,17.17
2017-09-17T06:06:08.417Z,14.53
2017-09-17T06:08:36.931Z,15.20
2017-09-17T06:11:07.050Z,16.90
2017-09-17T06:13:36.495Z,14.10
2017-09-17T06:16:04.951Z,13.20
2017-09-17T06:18:33.448Z,12.33
2017-09-17T06:21:01.903Z,10.33
2017-09-17T06:23:31.128Z,8.63
2017-09-17T06:25:59.719Z,9.77
2017-09-17T06:28:28.204Z,9.60
2017-09-17T06:30:56.679Z,8.53
2017-09-17T06:33:25.172Z,9.33
2017-09-17T06:35:53.659Z,8.23
2017-09-17T06:38:22.135Z,7.30
2017-09-17T06:40:50.608Z,8.17
2017-09-17T06:43:19.088Z,8.60
2017-09-17T06:45:47.584Z,8.90
2017-09-17T06:48:16.187Z,7.70
2017-09-17T06:50:44.648Z,7.27
2017-09-17T06:53:13.139Z,8.63
2017-09-17T06:55:41.669Z,7.97
2017-09-17T06:58:10.183Z,7.50
2017-09-17T07:00:38.660Z,6.90
2017-09-17T07:03:06.931Z,6.27
2017-09-17T07:05:35.415Z,6.60
2017-09-17T07:08:03.899Z,6.20
2017-09-17T07:10:32.366Z,6.17
2017-09-17T07:13:01.638Z,6.07
2017-09-17T07:15:30.403Z,6.30
2017-09-17T07:17:58.963Z,5.57
2017-09-17T07:20:27.745Z,5.47
2017-09-17T07:22:56.855Z,6.50
2017-09-17T07:25:25.693Z,4.93
2017-09-17T07:27:54.609Z,5.47
2017-09-17T07:30:24.431Z,5.57
2017-09-17T07:32:54.116Z,5.20
2017-09-17T07:35:22.816Z,5.83
2017-09-17T07:37:52.172Z,5.40
2017-09-17T07:40:21.023Z,5.53
2017-09-17T07:42:50.315Z,12.53
2017-09-17T07:45:20.010Z,5.43
2017-09-17T07:47:49.124Z,6.00
2017-09-17T07:50:18.984Z,6.13
2017-09-17T07:52:47.783Z,5.43
2017-09-17T07:55:16.943Z,6.10
2017-09-17T07:57:46.840Z,4.20
2017-09-17T08:00:16.530Z,4.00
2017-09-17T08:02:46.376Z,4.27
2017-09-17T08:05:16.332Z,4.40
2017-09-17T08:07:45.310Z,4.60
2017-09-17T08:10:15.174Z,4.63
2017-09-17T08:12:45.703Z,3.90
2017-09-17T08:15:14.716Z,3.80
2017-09-17T08:17:43.695Z,3.70
2017-09-17T08:20:15.028Z,3.93
2017-09-17T08:22:43.907Z,4.50
2017-09-17T08:25:12.943Z,3.60
2017-09-17T08:27:42.851Z,4.00
2017-09-17T08:30:12.991Z,3.90
2017-09-17T08:32:43.659Z,4.03
2017-09-17T08:35:13.623Z,4.50
2017-09-17T08:37:43.563Z,4.47
2017-09-17T08:40:13.453Z,3.83
2017-09-17T08:42:43.451Z,3.40
2017-09-17T08:45:11.916Z,4.27
2017-09-17T08:47:40.440Z,4.33
2017-09-17T08:50:08.931Z,4.50
2017-09-17T08:52:37.424Z,4.10
2017-09-17T08:55:06.476Z,4.20
2017-09-17T08:57:34.760Z,4.50
2017-09-17T09:00:03.251Z,3.93
2017-09-17T09:02:31.731Z,4.00
2017-09-17T09:05:00.234Z,4.10
2017-09-17T09:07:29.520Z,4.27
2017-09-17T09:09:58.019Z,3.90
2017-09-17T09:12:28.128Z,4.50
2017-09-17T09:14:56.699Z,3.90
2017-09-17T09:17:25.160Z,3.60
2017-09-17T09:19:53.680Z,4.03
2017-09-17T09:22:23.475Z,3.30
2017-09-17T09:24:51.829Z,3.40
2017-09-17T09:27:20.308Z,5.10
2017-09-17T09:29:48.804Z,3.07
2017-09-17T09:32:17.288Z,3.70
2017-09-17T09:34:45.771Z,3.00
2017-09-17T09:37:14.255Z,3.37
2017-09-17T09:39:42.713Z,3.63
2017-09-17T09:42:11.855Z,1.90
2017-09-17T09:44:40.468Z,2.80
2017-09-17T09:47:10.023Z,1.60
2017-09-17T09:49:38.863Z,1.40
2017-09-17T09:52:08.412Z,2.20
2017-09-17T09:54:37.249Z,2.53
2017-09-17T09:57:06.098Z,1.77
2017-09-17T09:59:34.989Z,1.70
2017-09-17T10:02:03.891Z,1.80
2017-09-17T10:04:32.472Z,1.50
2017-09-17T10:07:04.080Z,1.83
2017-09-17T10:09:44.578Z,1.83
2017-09-17T10:12:13.531Z,1.63
2017-09-17T10:14:44.101Z,2.70
2017-09-17T10:17:14.952Z,2.30
2017-09-17T10:19:44.932Z,1.10
2017-09-17T10:22:15.780Z,1.73
2017-09-17T10:24:44.957Z,1.30
2017-09-17T10:27:17.111Z,1.30
2017-09-17T10:29:50.028Z,1.73
2017-09-17T10:32:19.826Z,1.33
2017-09-17T10:34:49.559Z,1.07
2017-09-17T10:37:20.150Z,1.63
2017-09-17T10:39:49.327Z,1.40
2017-09-17T10:42:19.099Z,1.90
2017-09-17T10:44:49.007Z,1.20
2017-09-17T10:47:18.666Z,1.20
2017-09-17T10:49:47.806Z,1.57
2017-09-17T10:52:18.567Z,1.27
2017-09-17T10:54:49.769Z,1.63
2017-09-17T10:57:22.541Z,2.03
2017-09-17T10:59:52.678Z,1.13
2017-09-17T11:02:23.001Z,0.80
2017-09-17T11:04:52.095Z,2.70
2017-09-17T11:07:21.797Z,1.53
2017-09-17T11:09:50.275Z,1.67
2017-09-17T11:12:18.880Z,1.93
2017-09-17T11:14:47.335Z,1.60
2017-09-17T11:17:15.832Z,1.23
2017-09-17T11:19:44.312Z,0.97
2017-09-17T11:22:12.776Z,1.20
2017-09-17T11:24:41.245Z,1.10
2017-09-17T11:27:09.712Z,2.57
2017-09-17T11:29:38.186Z,1.23
2017-09-17T11:32:07.428Z,1.33
2017-09-17T11:34:35.926Z,2.10
2017-09-17T11:37:04.389Z,1.33
2017-09-17T11:39:32.964Z,7.13
2017-09-17T11:42:01.548Z,1.03
2017-09-17T11:44:30.045Z,1.10
2017-09-17T11:46:58.521Z,1.43
2017-09-17T11:49:26.996Z,2.53
2017-09-17T11:51:55.490Z,2.23
2017-09-17T11:54:23.956Z,2.10
2017-09-17T11:56:52.460Z,2.47
2017-09-17T11:59:20.950Z,2.10
2017-09-17T12:01:49.439Z,0.80
2017-09-17T12:04:17.904Z,1.03
2017-09-17T12:06:46.375Z,1.93
2017-09-17T12:09:14.866Z,0.90
2017-09-17T12:11:43.331Z,2.03
2017-09-17T12:14:11.799Z,0.97
2017-09-17T12:16:41.047Z,0.80
2017-09-17T12:19:09.552Z,1.00
2017-09-17T12:21:38.039Z,0.90
2017-09-17T12:24:06.597Z,0.70
2017-09-17T12:26:35.089Z,0.70
2017-09-17T12:29:03.415Z,0.63
2017-09-17T12:31:31.907Z,0.70
2017-09-17T12:34:00.496Z,1.80
2017-09-17T12:36:28.993Z,1.13
2017-09-17T12:38:57.460Z,0.80
2017-09-17T12:41:25.956Z,0.53
2017-09-17T12:43:55.215Z,0.70
2017-09-17T12:46:25.196Z,3.43
2017-09-17T12:48:55.291Z,0.60
2017-09-17T12:51:25.219Z,0.70
2017-09-17T12:53:55.163Z,0.80
2017-09-17T12:56:25.184Z,1.53
2017-09-17T12:58:55.111Z,0.80
2017-09-17T13:01:25.123Z,1.43
2017-09-17T13:03:59.455Z,0.77
2017-09-17T13:06:29.176Z,0.70
2017-09-17T13:08:59.823Z,0.87
2017-09-17T13:11:30.856Z,1.53
2017-09-17T13:14:01.561Z,1.40
2017-09-17T13:16:31.689Z,1.13
2017-09-17T13:19:01.923Z,0.70
2017-09-17T13:21:32.791Z,0.70
2017-09-17T13:24:01.752Z,0.73
2017-09-17T13:26:31.760Z,0.60
2017-09-17T13:29:04.467Z,0.70
2017-09-17T13:31:33.846Z,0.70
2017-09-17T13:34:03.016Z,0.80
2017-09-17T13:36:32.130Z,0.90
2017-09-17T13:39:01.250Z,1.03
2017-09-17T13:41:30.443Z,0.80
2017-09-17T13:43:59.335Z,2.30
2017-09-17T13:46:28.532Z,0.80
2017-09-17T13:48:58.608Z,1.13
2017-09-17T13:51:27.671Z,0.70
2017-09-17T13:53:57.275Z,1.00
2017-09-17T13:56:28.121Z,1.00
2017-09-17T13:58:59.070Z,1.10
2017-09-17T14:01:33.472Z,1.43
2017-09-17T14:04:04.669Z,0.83
2017-09-17T14:06:36.206Z,0.60
2017-09-17T14:09:23.838Z,1.57
2017-09-17T14:11:53.548Z,0.80
2017-09-17T14:14:23.204Z,3.23
2017-09-17T14:16:53.631Z,5.97
2017-09-17T14:19:23.343Z,1.17
2017-09-17T14:21:54.780Z,1.20
2017-09-17T14:24:31.518Z,0.67
2017-09-17T14:27:01.577Z,0.70
2017-09-17T14:29:30.823Z,0.80
2017-09-17T14:32:01.844Z,1.13
2017-09-17T14:34:32.996Z,0.70
2017-09-17T14:37:03.984Z,1.07
2017-09-17T14:39:33.144Z,0.70
2017-09-17T14:42:04.900Z,1.57
2017-09-17T14:44:36.373Z,0.77
2017-09-17T14:47:09.357Z,1.17
2017-09-17T14:49:40.680Z,0.97
2017-09-17T14:52:12.101Z,1.80
2017-09-17T14:54:43.000Z,0.90
2017-09-17T14:57:14.015Z,0.90
2017-09-17T14:59:48.624Z,0.80
2017-09-17T15:02:21.559Z,6.57
2017-09-17T15:04:51.733Z,1.07
2017-09-17T15:07:21.576Z,1.20
2017-09-17T15:09:50.862Z,1.20
2017-09-17T15:12:20.106Z,1.53
2017-09-17T15:14:48.572Z,1.27
2017-09-17T15:17:17.087Z,4.30
2017-09-17T15:19:45.599Z,1.63
2017-09-17T15:22:14.064Z,1.00
2017-09-17T15:24:42.590Z,1.60
2017-09-17T15:27:11.819Z,1.10
2017-09-17T15:29:40.443Z,1.27
2017-09-17T15:32:09.057Z,2.60
2017-09-17T15:34:38.278Z,8.03
2017-09-17T15:37:06.776Z,1.30
2017-09-17T15:39:35.261Z,2.00
2017-09-17T15:42:03.751Z,1.50
2017-09-17T15:44:32.210Z,1.73
2017-09-17T15:47:04.058Z,3.20
2017-09-17T15:49:33.039Z,1.90
2017-09-17T15:52:06.737Z,2.53
2017-09-17T15:54:37.563Z,4.13
2017-09-17T15:57:07.740Z,2.50
2017-09-17T15:59:39.797Z,1.70
2017-09-17T16:02:10.017Z,2.27
2017-09-17T16:04:39.134Z,5.67
2017-09-17T16:07:09.039Z,2.30
2017-09-17T16:09:37.511Z,2.70
2017-09-17T16:12:05.994Z,2.60
2017-09-17T16:14:34.483Z,2.07
2017-09-17T16:17:02.954Z,3.90
2017-09-17T16:19:31.472Z,5.43
2017-09-17T16:22:00.048Z,4.90
2017-09-17T16:24:28.332Z,3.63
2017-09-17T16:26:56.919Z,4.30
2017-09-17T16:29:25.545Z,7.50
2017-09-17T16:31:54.092Z,5.97
2017-09-17T16:34:22.684Z,3.60
2017-09-17T16:36:51.312Z,3.73
2017-09-17T16:39:20.616Z,1.93
2017-09-17T16:41:49.849Z,2.33
2017-09-17T16:44:18.269Z,2.97
2017-09-17T16:46:47.327Z,3.80
2017-09-17T16:49:15.808Z,2.50
2017-09-17T16:51:44.344Z,3.80
2017-09-17T16:54:13.767Z,2.63
2017-09-17T16:56:43.069Z,3.70
2017-09-17T16:59:12.579Z,2.30
2017-09-17T17:01:41.083Z,2.60
2017-09-17T17:04:09.393Z,2.67
2017-09-17T17:06:37.919Z,2.37
2017-09-17T17:09:07.257Z,4.67
2017-09-17T17:11:35.733Z,9.80
2017-09-17T17:14:04.553Z,3.70
2017-09-17T17:16:34.895Z,8.17
2017-09-17T17:19:03.967Z,3.87
2017-09-17T17:21:32.640Z,3.37
2017-09-17T17:24:01.408Z,4.00
2017-09-17T17:26:30.161Z,3.50
2017-09-17T17:28:59.563Z,5.60
2017-09-17T17:31:28.055Z,3.50
2017-09-17T17:33:57.448Z,10.13
2017-09-17T17:36:26.227Z,4.40
2017-09-17T17:38:55.816Z,5.90
2017-09-17T17:41:24.454Z,6.70
2017-09-17T17:43:56.711Z,5.43
2017-09-17T17:46:27.208Z,4.13
2017-09-17T17:48:56.371Z,5.13
2017-09-17T17:51:29.097Z,3.53
2017-09-17T17:53:58.484Z,2.77
2017-09-17T17:56:33.216Z,3.63
2017-09-17T17:59:03.333Z,2.87
2017-09-17T18:01:32.648Z,2.70
2017-09-17T18:04:03.011Z,3.70
2017-09-17T18:06:33.813Z,3.70
2017-09-17T18:09:15.011Z,3.00
2017-09-17T18:11:46.797Z,4.10
2017-09-17T18:14:17.513Z,2.10
2017-09-17T18:16:47.800Z,2.00
2017-09-17T18:19:18.019Z,2.47
2017-09-17T18:21:49.021Z,2.70
2017-09-17T18:24:19.948Z,3.70
2017-09-17T18:26:53.303Z,2.80
2017-09-17T18:29:24.767Z,5.43
2017-09-17T18:31:58.097Z,5.50
2017-09-17T18:34:29.104Z,6.40
2017-09-17T18:37:02.880Z,2.77
2017-09-17T18:39:35.001Z,3.23
2017-09-17T18:42:04.107Z,3.70
2017-09-17T18:44:33.880Z,3.67
2017-09-17T18:47:02.669Z,5.00
2017-09-17T18:49:31.634Z,5.10
2017-09-17T18:52:01.021Z,5.63
2017-09-17T18:54:29.789Z,5.43
2017-09-17T18:56:59.372Z,4.50
2017-09-17T18:59:28.171Z,4.40
2017-09-17T19:01:57.873Z,4.37
2017-09-17T19:04:26.770Z,7.47
2017-09-17T19:06:55.645Z,4.30
2017-09-17T19:09:26.160Z,4.67
2017-09-17T19:11:57.536Z,4.33
2017-09-17T19:14:29.748Z,5.07
2017-09-17T19:17:09.034Z,6.33
2017-09-17T19:19:38.520Z,4.10
2017-09-17T19:22:08.515Z,4.70
2017-09-17T19:24:38.011Z,7.03
2017-09-17T19:27:08.583Z,11.00
2017-09-17T19:29:38.868Z,4.53
2017-09-17T19:32:11.262Z,6.70
2017-09-17T19:34:49.889Z,5.67
2017-09-17T19:37:20.186Z,6.50
2017-09-17T19:39:53.209Z,5.13
2017-09-17T19:42:23.406Z,5.00
2017-09-17T19:44:57.066Z,4.83
2017-09-17T19:47:27.536Z,7.40
2017-09-17T19:49:59.999Z,6.13
2017-09-17T19:52:39.226Z,7.50
2017-09-17T19:55:11.115Z,7.10
2017-09-17T19:57:41.227Z,8.27
2017-09-17T20:00:11.745Z,8.50
2017-09-17T20:02:43.608Z,8.20
2017-09-17T20:05:14.099Z,6.60
2017-09-17T20:07:44.631Z,8.50
2017-09-17T20:10:14.872Z,8.70
2017-09-17T20:12:47.620Z,10.33
2017-09-17T20:15:19.929Z,9.03
2017-09-17T20:17:53.523Z,9.33
2017-09-17T20:20:23.951Z,8.50
2017-09-17T20:22:55.384Z,8.70
2017-09-17T20:25:24.609Z,11.37
2017-09-17T20:27:55.127Z,8.40
2017-09-17T20:30:28.709Z,9.33
2017-09-17T20:32:58.869Z,9.80
2017-09-17T20:35:28.885Z,9.20
2017-09-17T20:37:58.919Z,7.83
2017-09-17T20:40:35.594Z,7.47
2017-09-17T20:43:05.038Z,5.83
2017-09-17T20:45:33.540Z,5.70
2017-09-17T20:48:02.118Z,5.70
2017-09-17T20:50:30.608Z,7.10
2017-09-17T20:52:59.405Z,6.37
2017-09-17T20:55:27.927Z,6.53
2017-09-17T20:57:57.288Z,7.00
2017-09-17T21:00:25.800Z,7.17
2017-09-17T21:02:55.052Z,6.93
2017-09-17T21:05:23.539Z,8.30
2017-09-17T21:07:52.130Z,8.33
2017-09-17T21:10:21.183Z,7.33
2017-09-17T21:12:51.649Z,7.97
2017-09-17T21:15:20.584Z,6.37
2017-09-17T21:17:51.919Z,8.03
2017-09-17T21:20:21.155Z,7.13
2017-09-17T21:22:50.868Z,7.27
2017-09-17T21:25:20.826Z,6.97
2017-09-17T21:27:50.555Z,7.77
2017-09-17T21:30:19.808Z,7.27
2017-09-17T21:32:49.898Z,6.73
2017-09-17T21:35:20.027Z,7.70
2017-09-17T21:37:49.973Z,9.40
2017-09-17T21:40:19.027Z,7.50
2017-09-17T21:42:48.080Z,7.83
2017-09-17T21:45:16.557Z,7.20
2017-09-17T21:47:45.052Z,6.67
2017-09-17T21:50:13.520Z,7.23
2017-09-17T21:52:41.989Z,6.13
2017-09-17T21:55:10.478Z,5.40
2017-09-17T21:57:38.983Z,5.97
2017-09-17T22:00:07.471Z,5.67
2017-09-17T22:02:35.947Z,7.13
2017-09-17T22:05:04.417Z,5.60
2017-09-17T22:07:32.908Z,5.17
2017-09-17T22:10:02.069Z,4.27
2017-09-17T22:12:32.663Z,6.30
2017-09-17T22:15:01.491Z,3.10
2017-09-17T22:17:31.283Z,3.70
2017-09-17T22:20:00.980Z,2.97
2017-09-17T22:22:29.700Z,3.60
2017-09-17T22:24:58.988Z,3.70
2017-09-17T22:27:28.236Z,4.87
2017-09-17T22:29:56.695Z,3.80
2017-09-17T22:32:25.180Z,4.30
2017-09-17T22:34:53.636Z,4.33
2017-09-17T22:37:22.891Z,4.00
2017-09-17T22:39:51.416Z,3.47
2017-09-17T22:42:20.679Z,10.93
2017-09-17T22:44:49.167Z,3.30
2017-09-17T22:47:17.746Z,3.70
2017-09-17T22:49:46.204Z,4.10
2017-09-17T22:52:14.688Z,3.67
2017-09-17T22:54:43.169Z,4.50
2017-09-17T22:57:11.787Z,2.90
2017-09-17T22:59:40.267Z,5.63
2017-09-17T23:02:08.729Z,4.20
2017-09-17T23:04:37.221Z,3.67
2017-09-17T23:07:05.691Z,4.50
2017-09-17T23:09:34.163Z,6.23
2017-09-17T23:12:02.644Z,4.60
2017-09-17T23:14:31.123Z,4.77
2017-09-17T23:16:59.607Z,4.87
2017-09-17T23:19:28.063Z,4.33
2017-09-17T23:21:57.323Z,3.80
2017-09-17T23:24:25.791Z,4.00
2017-09-17T23:26:54.347Z,3.43
2017-09-17T23:29:22.836Z,3.83
2017-09-17T23:31:51.337Z,3.53
2017-09-17T23:34:19.799Z,5.60
2017-09-17T23:36:48.420Z,2.97
2017-09-17T23:39:16.892Z,2.80
2017-09-17T23:41:45.422Z,4.43
2017-09-17T23:44:14.661Z,3.53
2017-09-17T23:46:43.119Z,5.00
2017-09-17T23:49:12.548Z,3.10
2017-09-17T23:51:41.012Z,4.97
2017-09-17T23:54:09.683Z,2.50
2017-09-17T23:56:38.907Z,2.87
2017-09-17T23:59:07.409Z,3.10
